createdAt,value
2022-08-14T00:00:36.823Z,23.23
2022-08-14T00:01:37.908Z,23.33
2022-08-14T00:02:38.918Z,23.54
2022-08-14T00:03:40.393Z,23.53
2022-08-14T00:04:45.158Z,23.67
2022-08-14T00:05:46.270Z,23.68
2022-08-14T00:07:00.942Z,23.68
2022-08-14T00:08:01.666Z,23.76
2022-08-14T00:09:02.385Z,23.83
2022-08-14T00:10:50.754Z,23.76
2022-08-14T00:11:54.441Z,23.56
2022-08-14T00:12:56.554Z,23.65
2022-08-14T00:13:58.152Z,23.66
2022-08-14T00:14:58.862Z,23.61
2022-08-14T00:16:03.887Z,23.67
2022-08-14T00:17:08.542Z,23.78
2022-08-14T00:18:10.250Z,23.73
2022-08-14T00:20:23.600Z,23.8
2022-08-14T00:21:44.045Z,23.87
2022-08-14T00:22:56.327Z,24.02
2022-08-14T00:24:09.617Z,23.96
2022-08-14T00:25:13.549Z,24.1
2022-08-14T00:26:16.408Z,24.28
2022-08-14T00:27:24.003Z,24.36
2022-08-14T00:28:24.717Z,24.39
2022-08-14T00:29:40.257Z,24.29
2022-08-14T00:30:52.765Z,24.24
2022-08-14T00:31:53.956Z,24.3
2022-08-14T00:32:57.570Z,24.34
2022-08-14T00:34:35.188Z,24.25
2022-08-14T00:36:34.576Z,24.1
2022-08-14T00:37:50.618Z,24.14
2022-08-14T00:38:53.438Z,24.1
2022-08-14T00:39:54.333Z,24.01
2022-08-14T00:40:55.544Z,24.07
2022-08-14T00:41:58.821Z,24.06
2022-08-14T00:42:59.524Z,23.88
2022-08-14T00:44:00.222Z,23.97
2022-08-14T00:45:02.218Z,23.99
2022-08-14T00:46:02.965Z,23.9
2022-08-14T00:47:33.389Z,23.84
2022-08-14T00:48:48.975Z,24.02
2022-08-14T00:49:54.603Z,23.87
2022-08-14T00:50:55.277Z,23.94
2022-08-14T00:51:56.742Z,23.84
2022-08-14T00:52:58.812Z,23.65
2022-08-14T00:54:00.346Z,23.8
2022-08-14T00:55:01.239Z,23.8
2022-08-14T00:56:02.111Z,23.77
2022-08-14T00:57:09.388Z,23.6
2022-08-14T00:58:10.100Z,23.62
2022-08-14T00:59:11.848Z,23.64
2022-08-14T01:00:18.124Z,23.82
2022-08-14T01:01:52.639Z,23.86
2022-08-14T01:02:55.212Z,23.87
2022-08-14T01:03:59.575Z,23.73
2022-08-14T01:05:00.606Z,23.82
2022-08-14T01:06:02.383Z,23.72
2022-08-14T01:07:08.300Z,23.43
2022-08-14T01:08:20.483Z,23.46
2022-08-14T01:10:00.461Z,23.48
2022-08-14T01:11:01.163Z,23.52
2022-08-14T01:12:03.956Z,23.59
2022-08-14T01:13:04.753Z,23.57
2022-08-14T01:14:18.417Z,23.62
2022-08-14T01:15:48.234Z,23.69
2022-08-14T01:17:08.850Z,23.85
2022-08-14T01:18:14.777Z,23.95
2022-08-14T01:19:15.466Z,24.03
2022-08-14T01:20:27.383Z,24.3
2022-08-14T01:21:31.457Z,24.43
2022-08-14T01:22:49.477Z,24.55
2022-08-14T01:23:51.117Z,24.5
2022-08-14T01:24:57.264Z,24.57
2022-08-14T01:25:58.717Z,24.43
2022-08-14T01:27:05.184Z,24.54
2022-08-14T01:28:07.967Z,24.5
2022-08-14T01:30:01.352Z,24.34
2022-08-14T01:31:05.631Z,24.18
2022-08-14T01:32:10.443Z,24.04
2022-08-14T01:33:11.592Z,23.98
2022-08-14T01:35:16.842Z,23.93
2022-08-14T01:37:21.433Z,23.34
2022-08-14T01:38:22.123Z,23.29
2022-08-14T01:39:26.598Z,23.09
2022-08-14T01:40:37.166Z,23.06
2022-08-14T01:41:43.331Z,23.01
2022-08-14T01:42:56.355Z,22.96
2022-08-14T01:43:58.984Z,22.78
2022-08-14T01:44:59.676Z,22.81
2022-08-14T01:46:06.637Z,22.86
2022-08-14T01:47:24.896Z,22.9
2022-08-14T01:48:25.680Z,22.92
2022-08-14T01:49:33.547Z,22.94
2022-08-14T01:51:02.581Z,22.97
2022-08-14T01:52:03.474Z,23.01
2022-08-14T01:53:58.426Z,23.03
2022-08-14T01:54:59.152Z,23.01
2022-08-14T01:55:59.885Z,23.01
2022-08-14T01:57:01.491Z,23.08
2022-08-14T01:58:19.296Z,22.93
2022-08-14T01:59:37.711Z,22.9
2022-08-14T02:00:44.513Z,22.88
2022-08-14T02:01:51.634Z,22.94
2022-08-14T02:03:00.248Z,22.9
2022-08-14T02:04:00.954Z,22.9
2022-08-14T02:05:01.729Z,22.9
2022-08-14T02:06:03.765Z,22.88
2022-08-14T02:07:45.026Z,22.78
2022-08-14T02:09:18.970Z,22.7
2022-08-14T02:10:26.192Z,22.6
2022-08-14T02:11:29.079Z,22.66
2022-08-14T02:12:31.083Z,22.62
2022-08-14T02:13:32.332Z,22.59
2022-08-14T02:14:38.056Z,22.57
2022-08-14T02:15:38.728Z,22.65
2022-08-14T02:16:44.777Z,22.67
2022-08-14T02:17:50.265Z,22.71
2022-08-14T02:18:51.019Z,22.75
2022-08-14T02:19:53.630Z,22.78
2022-08-14T02:20:58.194Z,22.81
2022-08-14T02:22:02.711Z,23.01
2022-08-14T02:23:04.255Z,22.85
2022-08-14T02:24:04.955Z,22.88
2022-08-14T02:25:54.497Z,22.91
2022-08-14T02:26:58.577Z,22.88
2022-08-14T02:29:11.561Z,22.86
2022-08-14T02:30:12.309Z,22.9
2022-08-14T02:31:17.091Z,22.63
2022-08-14T02:32:30.224Z,22.48
2022-08-14T02:33:39.230Z,22.45
2022-08-14T02:34:41.501Z,22.52
2022-08-14T02:35:42.291Z,22.54
2022-08-14T02:36:44.174Z,22.6
2022-08-14T02:38:07.735Z,22.59
2022-08-14T02:39:36.148Z,22.59
2022-08-14T02:40:38.558Z,22.43
2022-08-14T02:41:52.585Z,22.49
2022-08-14T02:43:05.364Z,22.49
2022-08-14T02:44:10.915Z,22.46
2022-08-14T02:45:11.594Z,22.39
2022-08-14T02:46:12.479Z,22.47
2022-08-14T02:47:14.874Z,22.35
2022-08-14T02:49:02.147Z,22.11
2022-08-14T02:50:07.285Z,21.97
2022-08-14T02:51:08.935Z,21.96
2022-08-14T02:52:27.148Z,21.8
2022-08-14T02:54:19.570Z,21.73
2022-08-14T02:55:21.045Z,21.59
2022-08-14T02:56:30.998Z,21.55
2022-08-14T02:58:42.483Z,21.59
2022-08-14T02:59:44.128Z,21.81
2022-08-14T03:00:47.152Z,21.94
2022-08-14T03:01:58.945Z,22.15
2022-08-14T03:03:07.775Z,22.09
2022-08-14T03:04:10.493Z,22.15
2022-08-14T03:05:11.287Z,22.14
2022-08-14T03:06:13.940Z,22.14
2022-08-14T03:08:08.651Z,21.95
2022-08-14T03:09:09.342Z,21.84
2022-08-14T03:10:27.276Z,21.97
2022-08-14T03:11:35.276Z,21.83
2022-08-14T03:12:36.087Z,21.61
2022-08-14T03:13:36.946Z,21.64
2022-08-14T03:14:37.638Z,21.61
2022-08-14T03:15:38.350Z,21.41
2022-08-14T03:16:41.498Z,21.23
2022-08-14T03:17:56.657Z,21.19
2022-08-14T03:19:01.175Z,21.23
2022-08-14T03:20:01.968Z,21.02
2022-08-14T03:21:05.998Z,21.02
2022-08-14T03:22:09.274Z,21.03
2022-08-14T03:23:18.871Z,21.12
2022-08-14T03:24:21.595Z,21.17
2022-08-14T03:25:24.473Z,21.18
2022-08-14T03:26:30.057Z,21.24
2022-08-14T03:27:35.115Z,21.3
2022-08-14T03:29:00.667Z,21.16
2022-08-14T03:30:05.529Z,21.14
2022-08-14T03:31:26.195Z,21.17
2022-08-14T03:32:30.833Z,21.22
2022-08-14T03:33:37.588Z,21.18
2022-08-14T03:34:47.553Z,21.3
2022-08-14T03:35:59.605Z,21.36
2022-08-14T03:40:22.707Z,21.21
2022-08-14T03:41:23.900Z,21.21
2022-08-14T03:42:24.626Z,21.23
2022-08-14T03:43:40.420Z,21.18
2022-08-14T03:45:18.299Z,21.22
2022-08-14T03:46:39.342Z,21.23
2022-08-14T03:47:58.617Z,21.39
2022-08-14T03:49:03.059Z,21.42
2022-08-14T03:50:03.781Z,21.44
2022-08-14T03:51:11.833Z,21.42
2022-08-14T03:52:18.225Z,21.29
2022-08-14T03:53:48.487Z,21.38
2022-08-14T03:54:52.239Z,21.37
2022-08-14T03:55:53.689Z,21.5
2022-08-14T03:56:54.396Z,21.6
2022-08-14T03:57:55.697Z,21.54
2022-08-14T03:58:58.118Z,21.54
2022-08-14T03:59:58.946Z,21.54
2022-08-14T04:01:00.553Z,21.55
2022-08-14T04:02:02.522Z,21.54
2022-08-14T04:03:38.224Z,21.47
2022-08-14T04:04:39.404Z,21.55
2022-08-14T04:05:48.399Z,21.49
2022-08-14T04:06:50.104Z,21.53
2022-08-14T04:08:00.060Z,21.67
2022-08-14T04:09:32.533Z,21.73
2022-08-14T04:10:33.297Z,21.89
2022-08-14T04:11:34.061Z,21.85
2022-08-14T04:12:39.187Z,21.94
2022-08-14T04:13:41.126Z,22.11
2022-08-14T04:14:42.220Z,22.21
2022-08-14T04:15:56.843Z,22.14
2022-08-14T04:17:13.526Z,22.12
2022-08-14T04:18:24.932Z,21.98
2022-08-14T04:19:28.236Z,21.95
2022-08-14T04:20:40.885Z,22.01
2022-08-14T04:22:03.003Z,22.13
2022-08-14T04:23:29.295Z,22.32
2022-08-14T04:24:38.662Z,22.55
2022-08-14T04:25:46.492Z,22.45
2022-08-14T04:26:49.689Z,22.52
2022-08-14T04:28:01.963Z,22.64
2022-08-14T04:29:09.311Z,22.56
2022-08-14T04:30:25.041Z,22.52
2022-08-14T04:32:56.868Z,22.57
2022-08-14T04:34:27.179Z,22.45
2022-08-14T04:35:55.727Z,22.33
2022-08-14T04:36:57.913Z,22.42
2022-08-14T04:38:00.202Z,22.31
2022-08-14T04:39:38.931Z,22.2
2022-08-14T04:40:59.264Z,22.13
2022-08-14T04:42:00.894Z,22.14
2022-08-14T04:43:02.158Z,22.15
2022-08-14T04:44:02.861Z,22
2022-08-14T04:45:04.546Z,22
2022-08-14T04:46:06.748Z,21.98
2022-08-14T04:47:08.807Z,21.78
2022-08-14T04:48:12.466Z,21.76
2022-08-14T04:49:57.873Z,21.88
2022-08-14T04:51:04.244Z,21.77
2022-08-14T04:52:15.281Z,21.88
2022-08-14T04:53:35.142Z,22
2022-08-14T04:54:48.938Z,22.35
2022-08-14T04:55:49.928Z,22.38
2022-08-14T04:56:56.627Z,22.62
2022-08-14T04:58:21.391Z,22.8
2022-08-14T04:59:34.945Z,22.94
2022-08-14T05:00:35.643Z,22.84
2022-08-14T05:01:40.179Z,22.79
2022-08-14T05:02:41.633Z,22.71
2022-08-14T05:03:43.173Z,22.74
2022-08-14T05:04:45.430Z,22.59
2022-08-14T05:05:59.543Z,22.47
2022-08-14T05:07:00.232Z,22.35
2022-08-14T05:09:02.928Z,22.13
2022-08-14T05:10:12.968Z,22.12
2022-08-14T05:11:26.108Z,22
2022-08-14T05:13:11.349Z,22.02
2022-08-14T05:14:34.548Z,21.91
2022-08-14T05:15:56.439Z,21.37
2022-08-14T05:17:00.145Z,21.33
2022-08-14T05:18:03.914Z,21.12
2022-08-14T05:21:04.566Z,20.81
2022-08-14T05:23:19.936Z,20.9
2022-08-14T05:24:24.327Z,20.8
2022-08-14T05:25:25.860Z,20.75
2022-08-14T05:26:35.502Z,20.71
2022-08-14T05:27:36.234Z,21.03
2022-08-14T05:28:42.577Z,21.27
2022-08-14T05:29:44.305Z,21.42
2022-08-14T05:30:46.720Z,21.68
2022-08-14T05:31:49.388Z,21.85
2022-08-14T05:32:59.310Z,21.99
2022-08-14T05:34:00.014Z,22.15
2022-08-14T05:35:00.721Z,22.1
2022-08-14T05:36:01.405Z,22.16
2022-08-14T05:37:03.068Z,22.05
2022-08-14T05:38:10.670Z,21.94
2022-08-14T05:39:32.563Z,21.92
2022-08-14T05:40:36.029Z,21.74
2022-08-14T05:41:53.295Z,21.93
2022-08-14T05:43:41.020Z,21.83
2022-08-14T05:44:46.025Z,21.81
2022-08-14T05:45:46.900Z,21.78
2022-08-14T05:46:47.609Z,21.91
2022-08-14T05:47:50.792Z,22.09
2022-08-14T05:48:51.959Z,22.12
2022-08-14T05:49:54.507Z,22.26
2022-08-14T05:50:57.489Z,22.42
2022-08-14T05:52:03.973Z,22.66
2022-08-14T05:53:35.905Z,22.72
2022-08-14T05:54:36.600Z,22.88
2022-08-14T05:55:42.822Z,22.95
2022-08-14T05:56:45.735Z,23.13
2022-08-14T05:57:46.423Z,22.9
2022-08-14T05:58:48.539Z,22.78
2022-08-14T05:59:49.238Z,22.7
2022-08-14T06:00:54.724Z,22.75
2022-08-14T06:01:55.447Z,22.66
2022-08-14T06:02:57.693Z,22.17
2022-08-14T06:04:01.178Z,21.9
2022-08-14T06:05:05.882Z,21.72
2022-08-14T06:06:12.675Z,21.7
2022-08-14T06:07:13.750Z,21.48
2022-08-14T06:08:21.911Z,21.4
2022-08-14T06:09:42.790Z,21.28
2022-08-14T06:10:53.353Z,21.35
2022-08-14T06:11:54.551Z,21.25
2022-08-14T06:12:58.762Z,21.21
2022-08-14T06:13:59.460Z,21.04
2022-08-14T06:15:00.143Z,21.06
2022-08-14T06:16:00.845Z,20.84
2022-08-14T06:17:01.547Z,20.61
2022-08-14T06:18:02.253Z,20.54
2022-08-14T06:19:02.953Z,20.64
2022-08-14T06:20:06.284Z,20.55
2022-08-14T06:21:12.910Z,20.53
2022-08-14T06:22:14.480Z,20.55
2022-08-14T06:23:18.180Z,20.6
2022-08-14T06:24:20.533Z,20.65
2022-08-14T06:25:21.247Z,20.77
2022-08-14T06:26:29.902Z,20.9
2022-08-14T06:27:33.123Z,20.72
2022-08-14T06:28:35.432Z,20.89
2022-08-14T06:29:36.138Z,20.93
2022-08-14T06:30:42.233Z,20.86
2022-08-14T06:31:54.456Z,20.78
2022-08-14T06:35:01.765Z,20.83
2022-08-14T06:36:18.310Z,21.17
2022-08-14T06:37:19.293Z,21.2
2022-08-14T06:38:20.006Z,21.28
2022-08-14T06:39:36.217Z,21.35
2022-08-14T06:40:40.262Z,21.53
2022-08-14T06:41:58.849Z,21.59
2022-08-14T06:43:03.247Z,21.42
2022-08-14T06:44:04.629Z,21.5
2022-08-14T06:45:10.175Z,21.58
2022-08-14T06:46:17.478Z,21.55
2022-08-14T06:47:37.645Z,21.54
2022-08-14T06:48:44.781Z,21.59
2022-08-14T06:49:48.454Z,21.61
2022-08-14T06:50:59.261Z,21.63
2022-08-14T06:52:08.396Z,21.66
2022-08-14T06:53:27.965Z,21.85
2022-08-14T06:54:31.430Z,22.12
2022-08-14T06:55:36.953Z,22.21
2022-08-14T06:57:02.977Z,22.31
2022-08-14T06:58:04.330Z,22.39
2022-08-14T06:59:31.465Z,22.44
2022-08-14T07:00:34.531Z,22.29
2022-08-14T07:01:35.324Z,22.23
2022-08-14T07:02:36.559Z,22.26
2022-08-14T07:03:44.694Z,22.06
2022-08-14T07:04:47.261Z,21.94
2022-08-14T07:05:49.294Z,21.83
2022-08-14T07:07:00.603Z,21.8
2022-08-14T07:08:07.190Z,21.85
2022-08-14T07:09:07.917Z,21.95
2022-08-14T07:10:13.204Z,22.14
2022-08-14T07:11:18.358Z,22.44
2022-08-14T07:12:34.728Z,22.76
2022-08-14T07:14:07.006Z,23.15
2022-08-14T07:15:10.368Z,23.36
2022-08-14T07:16:12.492Z,23.55
2022-08-14T07:17:19.731Z,23.44
2022-08-14T07:18:20.437Z,23.35
2022-08-14T07:19:21.274Z,23.42
2022-08-14T07:20:30.378Z,23.51
2022-08-14T07:21:32.927Z,23.54
2022-08-14T07:22:50.178Z,23.4
2022-08-14T07:23:58.990Z,23.23
2022-08-14T07:24:59.793Z,23.22
2022-08-14T07:26:00.898Z,23.3
2022-08-14T07:27:03.375Z,23.4
2022-08-14T07:28:04.066Z,23.41
2022-08-14T07:29:05.130Z,23.5
2022-08-14T07:30:33.638Z,23.72
2022-08-14T07:31:51.965Z,24.14
2022-08-14T07:32:53.978Z,24.24
2022-08-14T07:33:55.946Z,24.34
2022-08-14T07:34:56.667Z,24.38
2022-08-14T07:36:00.601Z,24.24
2022-08-14T07:37:01.636Z,23.99
2022-08-14T07:38:02.424Z,24.16
2022-08-14T07:39:12.581Z,24.35
2022-08-14T07:40:14.213Z,24.48
2022-08-14T07:41:34.254Z,24.28
2022-08-14T07:42:36.809Z,24.51
2022-08-14T07:43:37.513Z,24.72
2022-08-14T07:44:46.063Z,24.78
2022-08-14T07:45:53.943Z,24.6
2022-08-14T07:46:54.912Z,24.34
2022-08-14T07:47:56.171Z,24.38
2022-08-14T07:48:57.797Z,24.39
2022-08-14T07:49:58.842Z,24.4
2022-08-14T07:51:03.107Z,24.44
2022-08-14T07:52:12.792Z,24.54
2022-08-14T07:53:34.110Z,24.84
2022-08-14T07:54:42.847Z,24.97
2022-08-14T07:55:45.098Z,25.1
2022-08-14T07:57:44.253Z,25.43
2022-08-14T07:58:51.250Z,25.55
2022-08-14T07:59:53.396Z,25.55
2022-08-14T08:00:56.432Z,25.61
2022-08-14T08:01:57.673Z,25.65
2022-08-14T08:03:00.196Z,25.77
2022-08-14T08:04:01.900Z,25.87
2022-08-14T08:05:04.147Z,26.22
2022-08-14T08:06:10.334Z,26.32
2022-08-14T08:07:18.832Z,26.52
2022-08-14T08:08:26.695Z,26.66
2022-08-14T08:09:32.723Z,26.68
2022-08-14T08:10:46.485Z,26.76
2022-08-14T08:12:15.695Z,27.16
2022-08-14T08:13:16.596Z,27.31
2022-08-14T08:14:18.127Z,27.55
2022-08-14T08:15:19.261Z,27.53
2022-08-14T08:16:24.042Z,27.52
2022-08-14T08:17:24.933Z,27.58
2022-08-14T08:18:27.408Z,27.68
2022-08-14T08:19:36.850Z,27.87
2022-08-14T08:20:44.528Z,28.03
2022-08-14T08:21:59.778Z,28.17
2022-08-14T08:23:06.238Z,28.22
2022-08-14T08:24:07.465Z,28.27
2022-08-14T08:25:13.445Z,28.49
2022-08-14T08:26:19.094Z,28.67
2022-08-14T08:27:19.832Z,28.77
2022-08-14T08:28:25.285Z,28.68
2022-08-14T08:29:29.756Z,28.46
2022-08-14T08:30:30.518Z,28.69
2022-08-14T08:31:32.802Z,28.81
2022-08-14T08:32:37.210Z,28.98
2022-08-14T08:33:38.466Z,28.75
2022-08-14T08:34:40.896Z,29.09
2022-08-14T08:35:46.754Z,29.29
2022-08-14T08:36:51.738Z,28.6
2022-08-14T08:37:53.851Z,28.4
2022-08-14T08:40:23.300Z,29.1
2022-08-14T08:41:33.600Z,29.07
2022-08-14T08:42:38.143Z,29.3
2022-08-14T08:43:45.758Z,29.48
2022-08-14T08:44:53.189Z,29.65
2022-08-14T08:45:53.872Z,29.79
2022-08-14T08:46:54.569Z,29.97
2022-08-14T08:47:55.260Z,30.17
2022-08-14T08:49:59.829Z,30.05
2022-08-14T08:51:01.704Z,30.37
2022-08-14T08:52:05.925Z,30.42
2022-08-14T08:53:16.006Z,30.66
2022-08-14T08:54:18.775Z,30.91
2022-08-14T08:55:32.379Z,31
2022-08-14T08:56:37.656Z,30.65
2022-08-14T08:57:42.632Z,31.01
2022-08-14T08:58:43.354Z,30.81
2022-08-14T08:59:44.079Z,30.9
2022-08-14T09:00:45.649Z,30.55
2022-08-14T09:01:51.498Z,30.83
2022-08-14T09:02:58.526Z,30.94
2022-08-14T09:04:00.169Z,31.1
2022-08-14T09:05:00.889Z,31.26
2022-08-14T09:06:01.584Z,31.29
2022-08-14T09:07:10.609Z,31.04
2022-08-14T09:08:26.781Z,30.63
2022-08-14T09:09:34.134Z,30.72
2022-08-14T09:11:01.575Z,30.95
2022-08-14T09:12:02.387Z,31.29
2022-08-14T09:13:04.292Z,31.3
2022-08-14T09:14:05.572Z,31.15
2022-08-14T09:15:09.172Z,31.07
2022-08-14T09:16:18.448Z,31.25
2022-08-14T09:17:20.612Z,31.09
2022-08-14T09:18:35.393Z,31.2
2022-08-14T09:19:36.110Z,31.54
2022-08-14T09:20:54.834Z,31.64
2022-08-14T09:22:02.374Z,31.64
2022-08-14T09:24:27.525Z,32.06
2022-08-14T09:25:58.664Z,32.66
2022-08-14T09:27:29.109Z,33.07
2022-08-14T09:28:30.313Z,33.31
2022-08-14T09:29:36.687Z,33.19
2022-08-14T09:30:54.836Z,33.15
2022-08-14T09:31:59.334Z,33.02
2022-08-14T09:33:00.228Z,33.31
2022-08-14T09:34:01.080Z,32.99
2022-08-14T09:35:29.697Z,33.32
2022-08-14T09:36:36.441Z,33.3
2022-08-14T09:37:46.698Z,33.34
2022-08-14T09:38:54.699Z,33.26
2022-08-14T09:39:55.458Z,33.24
2022-08-14T09:40:58.791Z,33.44
2022-08-14T09:42:18.162Z,33.6
2022-08-14T09:43:52.591Z,34.01
2022-08-14T09:44:53.321Z,34.14
2022-08-14T09:45:55.324Z,34.39
2022-08-14T09:47:08.373Z,34.07
2022-08-14T09:48:15.138Z,34.06
2022-08-14T09:49:16.593Z,33.96
2022-08-14T09:50:20.978Z,34.14
2022-08-14T09:51:41.390Z,34.06
2022-08-14T09:53:01.697Z,33.96
2022-08-14T09:54:06.107Z,34.13
2022-08-14T09:55:24.699Z,34.3
2022-08-14T09:56:30.755Z,34.29
2022-08-14T09:57:33.660Z,34.3
2022-08-14T09:58:34.417Z,34.34
2022-08-14T09:59:36.295Z,34.1
2022-08-14T10:00:37.958Z,34.09
2022-08-14T10:01:38.984Z,34.15
2022-08-14T10:02:47.171Z,33.74
2022-08-14T10:03:53.628Z,33.95
2022-08-14T10:04:54.428Z,33.93
2022-08-14T10:05:55.268Z,33.79
2022-08-14T10:06:55.975Z,33.91
2022-08-14T10:07:58.877Z,33.45
2022-08-14T10:09:01.433Z,33.39
2022-08-14T10:10:02.570Z,33.61
2022-08-14T10:11:25.013Z,33.78
2022-08-14T10:12:36.937Z,33.84
2022-08-14T10:13:43.369Z,33.52
2022-08-14T10:14:57.597Z,33.57
2022-08-14T10:16:00.752Z,33.77
2022-08-14T10:17:04.663Z,33.56
2022-08-14T10:18:09.312Z,33.68
2022-08-14T10:19:20.517Z,33.81
2022-08-14T10:20:39.242Z,33.8
2022-08-14T10:21:58.888Z,33.99
2022-08-14T10:24:23.903Z,34.1
2022-08-14T10:25:38.478Z,34.14
2022-08-14T10:26:43.191Z,34.36
2022-08-14T10:27:49.939Z,34.1
2022-08-14T10:29:04.130Z,34.02
2022-08-14T10:30:26.297Z,33.8
2022-08-14T10:31:27.159Z,33.76
2022-08-14T10:32:28.930Z,33.78
2022-08-14T10:33:53.220Z,33.81
2022-08-14T10:34:53.904Z,33.59
2022-08-14T10:35:54.936Z,33.48
2022-08-14T10:37:02.335Z,33.53
2022-08-14T10:38:15.879Z,33.63
2022-08-14T10:39:18.759Z,33.59
2022-08-14T10:40:37.102Z,33.57
2022-08-14T10:42:00.241Z,33.33
2022-08-14T10:43:02.781Z,33.77
2022-08-14T10:44:05.054Z,33.71
2022-08-14T10:45:07.298Z,33.73
2022-08-14T10:46:22.175Z,33.7
2022-08-14T10:49:35.106Z,33.79
2022-08-14T10:50:35.798Z,33.65
2022-08-14T10:51:39.650Z,33.66
2022-08-14T10:52:43.286Z,33.71
2022-08-14T10:53:44.668Z,33.81
2022-08-14T10:54:47.300Z,34.08
2022-08-14T10:55:48.226Z,34.25
2022-08-14T10:56:51.211Z,34.35
2022-08-14T14:22:00.241Z,37.54
2022-08-14T14:23:11.893Z,37.69
2022-08-14T14:24:18.504Z,37.8
2022-08-14T14:25:21.894Z,37.85
2022-08-14T14:26:24.100Z,37.9
2022-08-14T14:27:39.850Z,37.61
2022-08-14T14:28:42.900Z,37.28
2022-08-14T14:29:46.190Z,36.75
2022-08-14T14:31:01.162Z,36.62
2022-08-14T14:32:07.885Z,36.46
2022-08-14T14:33:45.024Z,36.14
2022-08-14T14:35:58.589Z,35.61
2022-08-14T14:37:00.960Z,35.58
2022-08-14T14:38:03.492Z,35.68
2022-08-14T14:39:04.349Z,35.57
2022-08-14T14:40:50.990Z,35.79
2022-08-14T14:42:04.085Z,35.53
2022-08-14T14:43:07.273Z,35.3
2022-08-14T14:44:09.680Z,34.99
2022-08-14T14:45:17.316Z,34.88
2022-08-14T14:46:18.626Z,34.67
2022-08-14T14:47:22.612Z,34.66
2022-08-14T14:48:27.045Z,34.81
2022-08-14T14:49:31.671Z,34.76
2022-08-14T14:50:56.366Z,34.85
2022-08-14T14:52:01.162Z,34.86
2022-08-14T14:53:12.631Z,35.04
2022-08-14T14:54:14.473Z,35.52
2022-08-14T14:55:43.189Z,35.7
2022-08-14T14:57:55.376Z,35.83
2022-08-14T14:58:56.554Z,35.37
2022-08-14T14:59:59.055Z,35.05
2022-08-14T15:00:59.888Z,34.77
2022-08-14T15:02:00.992Z,34.92
2022-08-14T15:03:01.678Z,34.9
2022-08-14T15:04:07.834Z,35.04
2022-08-14T15:05:22.052Z,34.89
2022-08-14T15:06:22.790Z,34.8
2022-08-14T15:07:34.451Z,34.89
2022-08-14T15:08:56.148Z,34.95
2022-08-14T15:10:00.979Z,34.88
2022-08-14T15:11:01.696Z,35.09
2022-08-14T15:12:02.422Z,35.29
2022-08-14T15:14:56.414Z,35.12
2022-08-14T15:16:10.134Z,35.25
2022-08-14T15:17:11.255Z,35.29
2022-08-14T15:18:15.143Z,35.2
2022-08-14T15:19:56.134Z,35.16
2022-08-14T15:20:58.111Z,35.11
2022-08-14T15:21:59.623Z,35.12
2022-08-14T15:23:00.654Z,35
2022-08-14T15:24:15.480Z,34.85
2022-08-14T15:25:27.793Z,34.87
2022-08-14T15:26:31.831Z,34.91
2022-08-14T15:27:34.291Z,34.77
2022-08-14T15:28:38.590Z,34.9
2022-08-14T15:29:42.997Z,34.98
2022-08-14T15:30:46.080Z,34.83
2022-08-14T15:32:00.077Z,34.43
2022-08-14T15:33:00.813Z,34.26
2022-08-14T15:34:34.036Z,34.35
2022-08-14T15:35:53.995Z,34.55
2022-08-14T15:37:02.214Z,34.79
2022-08-14T15:38:03.215Z,34.92
2022-08-14T15:39:03.908Z,34.93
2022-08-14T15:40:05.703Z,35.11
2022-08-14T15:41:23.453Z,35.23
2022-08-14T15:42:25.586Z,35.3
2022-08-14T15:43:31.190Z,35.3
2022-08-14T15:44:34.467Z,35.34
2022-08-14T15:46:02.160Z,35.28
2022-08-14T15:47:03.081Z,35.2
2022-08-14T15:48:03.807Z,35.07
2022-08-14T15:49:22.570Z,34.9
2022-08-14T15:50:23.675Z,34.91
2022-08-14T15:51:27.997Z,35.03
2022-08-14T15:52:34.991Z,34.78
2022-08-14T15:53:38.479Z,34.38
2022-08-14T15:54:50.165Z,34.38
2022-08-14T15:55:52.912Z,34.42
2022-08-14T15:56:53.926Z,34.59
2022-08-14T15:58:02.634Z,34.38
2022-08-14T15:59:17.276Z,34.42
2022-08-14T16:00:40.957Z,34.15
2022-08-14T16:01:54.849Z,33.9
2022-08-14T16:02:57.161Z,34.21
2022-08-14T16:04:01.165Z,34.23
2022-08-14T16:05:01.867Z,34.25
2022-08-14T16:06:02.776Z,34.47
2022-08-14T16:07:03.510Z,34.38
2022-08-14T16:08:24.260Z,34.36
2022-08-14T16:09:31.710Z,34.18
2022-08-14T16:10:33.151Z,34.08
2022-08-14T16:11:33.855Z,34.4
2022-08-14T16:12:55.620Z,34.55
2022-08-14T16:13:57.434Z,34.86
2022-08-14T16:15:02.363Z,35.12
2022-08-14T16:16:35.113Z,35.17
2022-08-14T16:18:03.619Z,35.54
2022-08-14T16:19:04.317Z,35.46
2022-08-14T16:20:11.919Z,35.3
2022-08-14T16:21:12.639Z,35.47
2022-08-14T16:22:57.783Z,35.21
2022-08-14T16:24:01.324Z,34.76
2022-08-14T16:25:03.310Z,34.92
2022-08-14T16:26:04.795Z,34.83
2022-08-14T16:27:05.542Z,34.95
2022-08-14T16:28:08.300Z,34.98
2022-08-14T16:29:09.040Z,34.99
2022-08-14T16:30:10.680Z,34.74
2022-08-14T16:31:11.704Z,34.78
2022-08-14T16:32:32.326Z,34.8
2022-08-14T16:33:59.161Z,34.83
2022-08-14T16:35:55.339Z,34.64
2022-08-14T16:37:01.486Z,34.64
2022-08-14T16:38:19.384Z,34.58
2022-08-14T16:39:49.294Z,34.41
2022-08-14T16:40:54.751Z,34.37
2022-08-14T16:41:57.256Z,34.55
2022-08-14T16:43:03.569Z,34.56
2022-08-14T16:44:21.692Z,34.57
2022-08-14T16:45:34.844Z,34.39
2022-08-14T16:46:57.249Z,34.35
2022-08-14T16:48:00.024Z,34.12
2022-08-14T16:49:00.771Z,34
2022-08-14T16:50:02.696Z,33.89
2022-08-14T16:51:10.261Z,33.87
2022-08-14T16:52:25.414Z,33.99
2022-08-14T16:54:01.605Z,34.15
2022-08-14T16:55:02.553Z,34.36
2022-08-14T16:56:03.274Z,34.24
2022-08-14T16:57:24.463Z,34.31
2022-08-14T16:58:27.231Z,34.32
2022-08-14T16:59:52.044Z,34.35
2022-08-14T17:00:59.846Z,34.48
2022-08-14T17:02:28.212Z,34.53
2022-08-14T17:03:28.929Z,34.5
2022-08-14T17:04:42.982Z,34.52
2022-08-14T17:05:50.111Z,34.52
2022-08-14T17:06:50.826Z,34.54
2022-08-14T17:07:52.631Z,34.26
2022-08-14T17:08:53.522Z,34.14
2022-08-14T17:09:58.664Z,34.22
2022-08-14T17:11:13.314Z,34.16
2022-08-14T17:12:28.855Z,34.08
2022-08-14T17:13:47.857Z,33.95
2022-08-14T17:15:02.573Z,33.89
2022-08-14T17:16:03.294Z,33.65
2022-08-14T17:17:05.125Z,33.57
2022-08-14T17:18:06.380Z,33.44
2022-08-14T17:19:09.672Z,33.46
2022-08-14T17:20:34.066Z,33.46
2022-08-14T17:22:18.494Z,33.81
2022-08-14T17:23:19.198Z,33.78
2022-08-14T17:24:51.273Z,33.81
2022-08-14T17:26:04.794Z,33.89
2022-08-14T17:27:08.701Z,33.94
2022-08-14T17:45:00.523Z,34.28
2022-08-14T17:46:02.669Z,34.22
2022-08-14T17:47:05.685Z,34.17
2022-08-14T17:48:07.103Z,34.23
2022-08-14T17:49:11.211Z,34.02
2022-08-14T17:50:55.032Z,33.81
2022-08-14T17:52:02.628Z,33.82
2022-08-14T17:53:17.598Z,33.73
2022-08-14T17:54:34.597Z,33.65
2022-08-14T17:56:02.642Z,33.53
2022-08-14T17:57:04.813Z,33.47
2022-08-14T17:58:16.648Z,33.48
2022-08-14T17:59:23.248Z,33.44
2022-08-14T18:00:23.934Z,33.44
2022-08-14T18:01:27.186Z,33.36
2022-08-14T18:02:31.146Z,33.29
2022-08-14T18:03:44.691Z,33.32
2022-08-14T18:04:54.574Z,33.25
2022-08-14T18:06:06.747Z,33.15
2022-08-14T18:08:55.255Z,33.2
2022-08-14T18:09:58.731Z,33.21
2022-08-14T18:11:00.292Z,33.11
2022-08-14T18:12:01.656Z,33.04
2022-08-14T18:13:06.057Z,33.05
2022-08-14T18:14:20.789Z,32.94
2022-08-14T18:15:53.524Z,32.84
2022-08-14T18:16:54.530Z,32.74
2022-08-14T18:17:55.298Z,32.71
2022-08-14T18:18:56.044Z,32.72
2022-08-14T18:19:57.992Z,32.46
2022-08-14T18:21:25.313Z,32.49
2022-08-14T18:22:58.743Z,32.17
2022-08-14T18:23:59.458Z,32.23
2022-08-14T18:25:02.292Z,31.96
2022-08-14T18:26:04.825Z,31.7
2022-08-14T18:27:06.860Z,31.88
2022-08-14T18:28:15.943Z,31.73
2022-08-14T18:29:55.108Z,31.56
2022-08-14T18:30:59.122Z,31.54
2022-08-14T18:32:00.155Z,31.42
2022-08-14T18:33:01.127Z,31.28
2022-08-14T18:34:02.407Z,31.3
2022-08-14T18:35:10.892Z,31.45
2022-08-14T18:36:47.002Z,31.59
2022-08-14T18:37:59.362Z,31.7
2022-08-14T18:39:00.754Z,31.66
2022-08-14T18:40:04.108Z,31.84
2022-08-14T18:41:09.539Z,31.82
2022-08-14T18:42:23.268Z,31.8
2022-08-14T18:43:31.346Z,31.74
2022-08-14T18:44:32.789Z,31.52
2022-08-14T18:45:33.500Z,31.6
2022-08-14T18:47:00.373Z,31.6
2022-08-14T18:48:14.906Z,31.67
2022-08-14T18:49:33.373Z,31.89
2022-08-14T18:50:40.362Z,32.03
2022-08-14T18:51:45.022Z,32.14
2022-08-14T18:52:52.624Z,32.16
2022-08-14T18:53:53.361Z,32.3
2022-08-14T18:54:59.397Z,32.39
2022-08-14T18:56:02.232Z,32.33